Time;durP1;ratioP1;P1;durP2;ratioP2;P2;SDS_P1;SDS_P2;PMS_P1;PMS_P2;Temp;Humidity;BMP_temperature;BMP_pressure;BME280_temperature;BME280_humidity;BME280_pressure;Samples;Min_cycle;Max_cycle;Signal;HPM_P1;HPM_P2
2022/12/13 00:00:36;;;;;;;1.33;1.33;;;13.00;71.60;;;;;;5015389;28;20500;-63
2022/12/13 00:03:25;;;;;;;0.40;0.40;;;13.10;71.50;;;;;;5015937;28;20199;-63
2022/12/13 00:06:13;;;;;;;0.40;0.40;;;13.20;71.30;;;;;;5015191;28;20210;-63
2022/12/13 00:09:01;;;;;;;0.40;0.40;;;13.20;71.60;;;;;;5016189;28;20203;-63
2022/12/13 00:11:51;;;;;;;0.40;0.40;;;13.20;71.10;;;;;;5015246;28;20652;-65
2022/12/13 00:14:39;;;;;;;0.40;0.40;;;13.20;71.20;;;;;;5014812;28;20289;-63
2022/12/13 00:17:27;;;;;;;0.40;0.40;;;13.20;71.00;;;;;;5015120;28;20445;-64
2022/12/13 00:20:16;;;;;;;0.70;0.70;;;13.20;70.80;;;;;;5015058;28;20225;-64
2022/12/13 00:23:04;;;;;;;0.40;0.40;;;13.20;70.00;;;;;;5015458;28;20210;-63
2022/12/13 00:25:52;;;;;;;0.40;0.40;;;13.20;70.80;;;;;;5016147;28;20205;-63
2022/12/13 00:28:41;;;;;;;0.40;0.40;;;13.20;70.90;;;;;;5014998;28;20213;-63
2022/12/13 00:31:30;;;;;;;0.40;0.40;;;13.10;70.80;;;;;;5014973;28;20814;-63
2022/12/13 00:34:38;;;;;;;0.40;0.40;;;13.10;70.50;;;;;;5015851;28;20560;-63
2022/12/13 00:37:28;;;;;;;0.40;0.40;;;13.10;70.60;;;;;;5014826;28;20439;-64
2022/12/13 00:40:16;;;;;;;2.10;2.00;;;13.10;70.60;;;;;;5015712;28;20241;-63
2022/12/13 00:43:04;;;;;;;0.40;0.40;;;13.00;70.90;;;;;;5029253;28;20202;-63
2022/12/13 00:45:52;;;;;;;1.10;1.10;;;13.00;70.60;;;;;;5033884;28;20425;-63
2022/12/13 00:48:40;;;;;;;0.40;0.40;;;12.90;70.30;;;;;;5034553;28;20206;-64
2022/12/13 00:51:30;;;;;;;0.50;0.50;;;12.90;70.50;;;;;;5034336;28;20571;-64
2022/12/13 00:54:20;;;;;;;0.40;0.40;;;12.90;70.80;;;;;;5034362;28;20426;-64
2022/12/13 00:57:08;;;;;;;0.40;0.40;;;12.90;71.00;;;;;;5033852;28;20457;-64
2022/12/13 00:59:56;;;;;;;0.40;0.40;;;13.00;71.80;;;;;;5033912;28;20456;-64
2022/12/13 01:02:44;;;;;;;0.40;0.40;;;13.20;71.70;;;;;;5041362;28;20426;-64
2022/12/13 01:05:35;;;;;;;0.50;0.50;;;13.30;71.40;;;;;;5052781;28;20425;-63
2022/12/13 01:08:43;;;;;;;0.40;0.40;;;13.40;71.30;;;;;;5053634;28;20425;-64
2022/12/13 01:11:32;;;;;;;0.63;0.63;;;13.50;71.10;;;;;;5038704;28;20512;-64
2022/12/13 01:14:21;;;;;;;0.40;0.40;;;13.60;70.90;;;;;;5033217;28;20427;-64
2022/12/13 01:17:09;;;;;;;0.40;0.40;;;13.60;70.70;;;;;;5033504;28;20457;-64
2022/12/13 01:19:57;;;;;;;0.40;0.40;;;13.70;70.80;;;;;;5033442;28;20643;-63
2022/12/13 01:22:45;;;;;;;0.40;0.40;;;13.70;70.40;;;;;;5032999;28;20425;-63
2022/12/13 01:25:33;;;;;;;3.43;2.40;;;13.70;70.30;;;;;;5033533;28;20666;-63
2022/12/13 01:28:23;;;;;;;0.40;0.40;;;13.70;70.60;;;;;;5033036;28;20228;-63
2022/12/13 01:31:13;;;;;;;0.40;0.40;;;13.60;70.00;;;;;;5032824;28;20208;-63
2022/12/13 01:34:09;;;;;;;0.40;0.40;;;13.60;70.00;;;;;;5033147;28;20281;-64
2022/12/13 01:36:57;;;;;;;0.40;0.40;;;13.60;69.70;;;;;;5033535;28;20996;-63
2022/12/13 01:39:45;;;;;;;1.83;1.73;;;13.50;70.20;;;;;;5032388;28;20457;-64
2022/12/13 01:42:36;;;;;;;0.40;0.40;;;13.50;69.40;;;;;;5023290;28;20426;-64
2022/12/13 01:45:27;;;;;;;2.73;0.97;;;13.40;70.70;;;;;;5013098;28;20422;-63
2022/12/13 01:48:19;;;;;;;0.40;0.40;;;13.40;70.20;;;;;;5013041;28;20231;-63
2022/12/13 01:51:09;;;;;;;0.40;0.40;;;13.20;69.80;;;;;;5025880;28;20199;-64
2022/12/13 01:54:01;;;;;;;0.40;0.40;;;13.20;70.00;;;;;;5031951;28;20505;-64
2022/12/13 01:56:53;;;;;;;0.40;0.40;;;13.20;70.20;;;;;;5031834;28;20305;-64
2022/12/13 01:59:50;;;;;;;0.40;0.40;;;13.20;70.20;;;;;;5027561;28;20473;-64
2022/12/13 02:02:39;;;;;;;0.40;0.40;;;13.10;70.00;;;;;;5021511;28;20805;-64
2022/12/13 02:05:32;;;;;;;0.40;0.40;;;13.10;70.00;;;;;;5013961;28;20281;-63
2022/12/13 02:08:21;;;;;;;0.40;0.40;;;13.00;70.20;;;;;;5013697;28;20214;-63
2022/12/13 02:11:10;;;;;;;0.40;0.40;;;13.00;70.20;;;;;;5012622;28;20446;-63
2022/12/13 02:13:58;;;;;;;0.40;0.40;;;13.00;71.00;;;;;;5017269;28;20575;-63
2022/12/13 02:16:56;;;;;;;4.63;2.30;;;13.00;70.20;;;;;;5020046;28;20473;-63
2022/12/13 02:20:38;;;;;;;1.77;1.63;;;13.00;70.80;;;;;;5012535;28;20219;-64
2022/12/13 02:23:54;;;;;;;0.40;0.40;;;13.10;71.20;;;;;;4933604;29;20210;-64
2022/12/13 02:26:50;;;;;;;0.40;0.40;;;13.10;71.50;;;;;;5015980;28;20537;-63
2022/12/13 02:30:18;;;;;;;0.40;0.40;;;13.20;71.50;;;;;;5017616;28;20429;-63
2022/12/13 02:33:22;;;;;;;0.40;0.40;;;13.30;71.40;;;;;;5017353;28;20228;-63
2022/12/13 02:36:17;;;;;;;0.40;0.40;;;13.30;71.10;;;;;;5016298;28;20513;-64
2022/12/13 02:39:11;;;;;;;0.40;0.40;;;13.30;71.20;;;;;;5012411;28;20667;-64
2022/12/13 02:42:03;;;;;;;0.40;0.40;;;13.30;70.90;;;;;;5018281;28;20426;-64
2022/12/13 02:44:55;;;;;;;0.40;0.40;;;13.30;70.90;;;;;;5032333;28;20452;-64
2022/12/13 02:47:43;;;;;;;0.40;0.40;;;13.20;70.80;;;;;;5031230;28;20384;-63
2022/12/13 02:50:34;;;;;;;10.00;2.97;;;13.30;70.30;;;;;;5031939;28;20210;-63
2022/12/13 02:53:23;;;;;;;0.40;0.40;;;13.30;71.10;;;;;;5030666;28;20704;-63
2022/12/13 02:56:12;;;;;;;0.40;0.40;;;13.20;84.40;;;;;;5031412;28;20949;-63
2022/12/13 02:59:05;;;;;;;0.40;0.40;;;13.10;70.50;;;;;;5031959;28;20439;-63
2022/12/13 03:02:05;;;;;;;0.40;0.40;;;13.20;70.50;;;;;;5031740;28;20793;-64
2022/12/13 03:08:21;;;;;;;2.50;2.40;;;13.10;70.50;;;;;;5031184;28;20969;-63
2022/12/13 03:11:12;;;;;;;0.40;0.40;;;13.00;70.50;;;;;;5032016;28;20422;-63
2022/12/13 03:14:04;;;;;;;0.40;0.40;;;13.00;70.20;;;;;;5031436;28;20429;-63
2022/12/13 03:16:54;;;;;;;0.40;0.40;;;13.10;70.80;;;;;;5031787;28;20447;-64
2022/12/13 03:19:43;;;;;;;0.40;0.40;;;13.10;70.90;;;;;;5031343;28;20460;-63
2022/12/13 03:22:33;;;;;;;0.40;0.40;;;13.00;71.00;;;;;;5031613;28;20507;-63
2022/12/13 03:25:25;;;;;;;0.40;0.40;;;12.90;71.00;;;;;;5030915;28;20436;-63
2022/12/13 03:28:20;;;;;;;0.40;0.40;;;13.00;71.10;;;;;;5031523;28;20240;-63
2022/12/13 03:31:08;;;;;;;0.40;0.40;;;13.00;71.60;;;;;;5030814;28;20960;-63
2022/12/13 03:33:56;;;;;;;0.40;0.40;;;13.20;71.60;;;;;;5031504;28;20956;-64
2022/12/13 03:36:44;;;;;;;0.40;0.40;;;13.20;71.40;;;;;;5031620;28;20479;-63
2022/12/13 03:39:32;;;;;;;0.40;0.40;;;13.30;71.30;;;;;;5031831;28;20495;-64
2022/12/13 03:42:24;;;;;;;0.50;0.50;;;13.20;71.10;;;;;;5022189;28;20426;-63
2022/12/13 03:45:12;;;;;;;0.40;0.40;;;13.30;71.00;;;;;;5012210;28;20564;-63
2022/12/13 03:48:00;;;;;;;2.43;2.10;;;13.30;70.70;;;;;;5010807;28;20596;-63
2022/12/13 03:50:48;;;;;;;1.03;1.03;;;13.40;70.30;;;;;;5011940;28;20675;-63
2022/12/13 03:53:36;;;;;;;0.40;0.40;;;13.30;70.20;;;;;;5011716;28;20199;-63
2022/12/13 03:56:25;;;;;;;0.43;0.43;;;13.40;70.40;;;;;;5011403;28;20595;-63
2022/12/13 03:59:14;;;;;;;0.40;0.40;;;13.20;70.50;;;;;;5011576;28;20581;-64
2022/12/13 04:02:02;;;;;;;0.40;0.40;;;13.20;70.50;;;;;;5011556;28;20472;-63
2022/12/13 04:04:50;;;;;;;0.40;0.40;;;13.20;70.50;;;;;;5012477;28;20213;-63
2022/12/13 04:07:39;;;;;;;0.40;0.40;;;13.20;70.60;;;;;;5015177;28;20729;-63
2022/12/13 04:10:35;;;;;;;0.40;0.40;;;13.10;70.30;;;;;;5015579;28;20570;-63
2022/12/13 04:13:31;;;;;;;0.40;0.40;;;13.40;70.80;;;;;;5020911;28;20674;-62
2022/12/13 04:16:20;;;;;;;1.60;1.60;;;13.10;70.40;;;;;;5034541;28;20253;-63
2022/12/13 04:19:08;;;;;;;0.40;0.40;;;13.00;70.50;;;;;;5034312;28;20208;-63
2022/12/13 04:21:56;;;;;;;0.40;0.40;;;13.00;70.20;;;;;;5034727;28;20222;-63
2022/12/13 04:24:44;;;;;;;0.40;0.40;;;13.00;70.30;;;;;;5034808;28;20452;-63
2022/12/13 04:27:33;;;;;;;0.40;0.40;;;13.00;70.50;;;;;;5035267;28;20290;-63
2022/12/13 04:30:21;;;;;;;0.40;0.40;;;12.90;70.50;;;;;;5034024;28;20487;-63
2022/12/13 04:33:10;;;;;;;0.57;0.57;;;13.20;71.50;;;;;;5035611;28;20428;-63
2022/12/13 04:35:58;;;;;;;0.40;0.40;;;13.00;71.40;;;;;;5034971;28;20520;-64
2022/12/13 04:38:46;;;;;;;0.40;0.40;;;13.20;71.60;;;;;;5034750;28;20933;-64
2022/12/13 04:41:36;;;;;;;0.40;0.40;;;13.20;71.40;;;;;;5031536;28;20222;-64
2022/12/13 04:44:24;;;;;;;1.03;1.03;;;13.30;71.20;;;;;;5015023;28;20524;-63
2022/12/13 04:47:17;;;;;;;0.40;0.40;;;13.30;71.00;;;;;;5014652;28;20446;-63
2022/12/13 04:50:07;;;;;;;0.40;0.40;;;13.30;70.70;;;;;;5014882;28;20440;-63
2022/12/13 04:52:55;;;;;;;0.40;0.40;;;13.30;70.40;;;;;;5014510;28;20418;-64
2022/12/13 04:55:43;;;;;;;0.40;0.40;;;13.30;70.30;;;;;;5014962;28;20194;-63
2022/12/13 04:58:32;;;;;;;0.40;0.40;;;13.30;70.40;;;;;;5091251;23;20232;-64
2022/12/13 05:01:20;;;;;;;0.40;0.40;;;13.30;69.90;;;;;;5074602;28;20230;-64
2022/12/13 05:04:08;;;;;;;0.40;0.40;;;13.30;70.10;;;;;;5076840;28;20228;-64
2022/12/13 05:06:57;;;;;;;0.40;0.40;;;13.30;70.30;;;;;;5075845;28;20220;-64
2022/12/13 05:09:45;;;;;;;0.40;0.40;;;13.20;70.20;;;;;;5076043;28;20211;-63
2022/12/13 05:12:33;;;;;;;0.40;0.40;;;13.20;70.40;;;;;;5076070;28;20679;-63
2022/12/13 05:15:21;;;;;;;0.40;0.40;;;13.20;70.20;;;;;;5076055;28;20232;-63
2022/12/13 05:18:10;;;;;;;0.40;0.40;;;13.20;70.20;;;;;;5075707;28;20471;-64
2022/12/13 05:21:01;;;;;;;0.47;0.47;;;13.10;70.00;;;;;;5075810;28;20196;-63
2022/12/13 05:23:51;;;;;;;0.40;0.40;;;13.10;70.20;;;;;;5073418;28;20420;-64
2022/12/13 05:26:39;;;;;;;0.40;0.40;;;13.00;77.20;;;;;;5075792;28;20285;-64
2022/12/13 05:29:27;;;;;;;0.40;0.40;;;13.00;70.10;;;;;;5075243;28;20203;-64
2022/12/13 05:32:15;;;;;;;0.40;0.40;;;13.00;69.70;;;;;;5075532;28;20672;-64
2022/12/13 05:35:04;;;;;;;0.40;0.40;;;13.00;70.00;;;;;;5074952;28;20222;-68
2022/12/13 05:37:52;;;;;;;0.40;0.40;;;12.90;70.20;;;;;;5075532;28;20534;-65
2022/12/13 05:40:43;;;;;;;0.40;0.40;;;12.90;71.00;;;;;;5073748;28;20423;-70
2022/12/13 05:43:31;;;;;;;0.40;0.40;;;13.00;71.20;;;;;;5074746;28;20438;-64
2022/12/13 05:46:30;;;;;;;0.40;0.40;;;13.00;71.40;;;;;;5074896;28;20534;-65
2022/12/13 05:49:23;;;;;;;0.40;0.40;;;13.20;71.20;;;;;;5073944;28;20423;-64
2022/12/13 05:52:16;;;;;;;0.40;0.40;;;13.40;70.90;;;;;;5074963;28;20430;-64
2022/12/13 05:55:05;;;;;;;0.40;0.40;;;13.50;70.70;;;;;;5074600;28;20211;-65
2022/12/13 05:57:54;;;;;;;0.40;0.40;;;13.60;70.40;;;;;;5073801;28;20264;-64
2022/12/13 06:00:49;;;;;;;0.60;0.60;;;13.70;70.20;;;;;;5075036;28;20208;-65
2022/12/13 06:03:37;;;;;;;0.40;0.40;;;13.80;70.10;;;;;;5074485;28;20799;-62
2022/12/13 06:06:25;;;;;;;0.40;0.40;;;14.00;70.20;;;;;;5075083;28;20679;-64
2022/12/13 06:09:14;;;;;;;0.47;0.47;;;13.90;70.00;;;;;;5074891;28;20276;-64
2022/12/13 06:12:02;;;;;;;0.40;0.40;;;13.90;69.80;;;;;;5074435;28;20276;-64
2022/12/13 06:15:11;;;;;;;0.40;0.40;;;13.90;69.50;;;;;;5074554;28;20209;-64
2022/12/13 06:18:09;;;;;;;0.60;0.60;;;13.90;69.40;;;;;;5074223;28;20220;-64
2022/12/13 06:20:59;;;;;;;0.50;0.50;;;13.90;69.10;;;;;;5073974;28;21091;-64
2022/12/13 06:23:47;;;;;;;0.40;0.40;;;13.80;69.50;;;;;;5073675;28;20197;-64
2022/12/13 06:26:35;;;;;;;1.53;1.47;;;13.70;69.20;;;;;;5073445;28;20256;-64
2022/12/13 06:29:23;;;;;;;0.40;0.40;;;13.70;69.30;;;;;;5073261;28;20689;-63
2022/12/13 06:32:14;;;;;;;0.40;0.40;;;13.70;68.90;;;;;;5073149;28;20200;-64
2022/12/13 06:35:02;;;;;;;0.40;0.40;;;13.60;69.00;;;;;;5074502;28;20279;-65
2022/12/13 06:38:11;;;;;;;0.40;0.40;;;13.60;69.20;;;;;;5074665;28;20435;-63
2022/12/13 06:41:09;;;;;;;1.20;1.13;;;13.50;69.20;;;;;;5073650;28;20513;-64
2022/12/13 06:43:58;;;;;;;0.40;0.40;;;13.40;69.30;;;;;;5053606;28;20205;-64
2022/12/13 06:46:46;;;;;;;0.40;0.40;;;13.30;68.70;;;;;;5054345;28;20634;-64
2022/12/13 06:49:35;;;;;;;0.40;0.40;;;13.30;69.10;;;;;;5053249;28;20201;-64
2022/12/13 06:52:23;;;;;;;0.40;0.40;;;13.30;69.50;;;;;;5053526;28;20448;-64
2022/12/13 06:55:11;;;;;;;0.50;0.50;;;13.20;69.60;;;;;;5053645;28;20209;-67
2022/12/13 06:57:59;;;;;;;0.57;0.57;;;13.20;69.40;;;;;;5053672;28;20312;-65
2022/12/13 07:00:47;;;;;;;0.40;0.40;;;13.20;69.50;;;;;;5052802;28;20205;-64
2022/12/13 07:03:36;;;;;;;0.40;0.40;;;13.20;69.60;;;;;;5053551;28;20240;-67
2022/12/13 07:06:26;;;;;;;0.60;0.60;;;13.20;69.50;;;;;;5053140;28;20706;-65
2022/12/13 07:09:14;;;;;;;0.40;0.40;;;13.10;69.60;;;;;;5053253;28;20575;-65
2022/12/13 07:12:03;;;;;;;0.40;0.40;;;13.00;69.80;;;;;;5053643;28;20201;-67
2022/12/13 07:14:52;;;;;;;0.40;0.40;;;13.00;69.60;;;;;;5052485;28;20197;-65
2022/12/13 07:17:41;;;;;;;0.40;0.40;;;12.90;69.90;;;;;;5054157;28;20225;-64
2022/12/13 07:20:29;;;;;;;0.50;0.50;;;13.10;69.50;;;;;;5052423;28;20203;-65
2022/12/13 07:23:18;;;;;;;0.73;0.73;;;12.90;69.70;;;;;;5052898;28;20295;-64
2022/12/13 07:26:11;;;;;;;0.40;0.40;;;12.80;69.60;;;;;;5052862;28;20205;-65
2022/12/13 07:28:59;;;;;;;0.40;0.40;;;12.80;70.30;;;;;;5052997;28;20416;-63
2022/12/13 07:31:47;;;;;;;0.40;0.40;;;12.90;70.80;;;;;;5052430;28;20201;-64
2022/12/13 07:34:35;;;;;;;0.47;0.47;;;13.00;70.90;;;;;;5052697;28;20197;-63
2022/12/13 07:37:23;;;;;;;0.40;0.40;;;13.00;70.80;;;;;;5052507;28;20324;-64
2022/12/13 07:40:19;;;;;;;0.40;0.40;;;13.00;70.80;;;;;;5055446;28;20678;-64
2022/12/13 07:43:07;;;;;;;0.40;0.40;;;13.20;70.60;;;;;;5071619;28;20470;-66
2022/12/13 07:45:58;;;;;;;1.27;1.20;;;13.10;70.50;;;;;;5077166;28;20515;-64
2022/12/13 07:48:46;;;;;;;0.40;0.40;;;13.10;70.10;;;;;;5076367;28;20954;-64
2022/12/13 07:51:34;;;;;;;0.50;0.50;;;13.10;70.30;;;;;;5076597;28;20429;-66
2022/12/13 07:54:22;;;;;;;0.40;0.40;;;13.10;69.90;;;;;;5076285;28;20672;-66
2022/12/13 07:57:12;;;;;;;1.10;1.10;;;13.10;69.80;;;;;;5077718;28;20539;-64
2022/12/13 08:00:00;;;;;;;0.40;0.40;;;13.10;69.60;;;;;;5075681;28;20847;-65
2022/12/13 08:02:48;;;;;;;0.40;0.40;;;13.10;69.40;;;;;;5077306;28;20369;-64
2022/12/13 08:05:37;;;;;;;0.70;0.70;;;13.20;69.80;;;;;;5077362;28;20506;-64
2022/12/13 08:08:26;;;;;;;0.40;0.40;;;13.10;69.60;;;;;;5076625;28;20262;-64
2022/12/13 08:11:18;;;;;;;0.40;0.40;;;13.10;69.60;;;;;;5077165;28;20533;-64
2022/12/13 08:14:08;;;;;;;0.40;0.40;;;13.10;69.80;;;;;;5075819;28;20425;-66
2022/12/13 08:16:56;;;;;;;0.40;0.40;;;13.10;69.60;;;;;;5076909;28;20304;-69
2022/12/13 08:19:44;;;;;;;0.40;0.40;;;13.10;68.90;;;;;;5075236;28;20568;-63
2022/12/13 08:22:32;;;;;;;0.40;0.40;;;13.10;70.10;;;;;;5077680;28;21019;-69
2022/12/13 08:25:23;;;;;;;0.40;0.40;;;13.00;69.20;;;;;;5055696;28;20416;-62
2022/12/13 08:28:11;;;;;;;0.40;0.40;;;12.90;69.60;;;;;;5056038;28;20696;-64
2022/12/13 08:31:05;;;;;;;0.40;0.40;;;13.00;70.40;;;;;;5055880;28;20428;-65
2022/12/13 08:33:53;;;;;;;0.40;0.40;;;12.90;69.60;;;;;;5056056;28;20981;-64
2022/12/13 08:36:41;;;;;;;0.40;0.40;;;12.80;70.00;;;;;;5056277;28;20562;-64
2022/12/13 08:39:29;;;;;;;0.40;0.40;;;12.90;70.30;;;;;;5055685;28;20456;-64
2022/12/13 08:42:23;;;;;;;0.40;0.40;;;12.80;69.70;;;;;;5064963;28;20820;-65
2022/12/13 08:45:11;;;;;;;0.40;0.40;;;12.80;70.70;;;;;;5075410;28;20449;-64
2022/12/13 08:48:02;;;;;;;0.40;0.40;;;12.80;70.90;;;;;;5075753;28;20508;-65
2022/12/13 08:50:50;;;;;;;0.50;0.50;;;13.00;71.10;;;;;;5074197;28;20455;-64
2022/12/13 08:53:38;;;;;;;0.50;0.50;;;13.10;70.90;;;;;;5075774;28;20498;-64
2022/12/13 08:56:28;;;;;;;0.40;0.40;;;13.10;70.70;;;;;;5076335;28;20951;-65
2022/12/13 08:59:17;;;;;;;2.17;2.00;;;13.20;70.60;;;;;;5075418;28;20446;-65
2022/12/13 09:02:05;;;;;;;0.40;0.40;;;13.30;70.40;;;;;;5075487;28;20518;-65
2022/12/13 09:04:54;;;;;;;0.40;0.40;;;13.20;70.30;;;;;;5075449;28;20455;-66
2022/12/13 09:07:42;;;;;;;1.17;1.17;;;13.20;69.70;;;;;;5075606;28;20462;-64
2022/12/13 09:10:30;;;;;;;0.40;0.40;;;13.30;70.00;;;;;;5074877;28;20211;-63
2022/12/13 09:13:25;;;;;;;1.77;1.63;;;13.30;69.80;;;;;;5076030;28;20428;-64
2022/12/13 09:16:22;;;;;;;0.40;0.40;;;13.30;69.60;;;;;;5076865;28;20427;-70
2022/12/13 09:19:11;;;;;;;0.40;0.40;;;13.40;69.40;;;;;;5076011;28;20420;-63
2022/12/13 09:22:16;;;;;;;0.40;0.40;;;13.40;68.40;;;;;;5076222;28;20680;-64
2022/12/13 09:25:20;;;;;;;0.40;0.40;;;13.30;68.60;;;;;;5075711;28;20983;-67
2022/12/13 09:28:11;;;;;;;0.40;0.40;;;13.40;68.80;;;;;;5075706;28;20473;-64
2022/12/13 09:30:59;;;;;;;0.40;0.40;;;13.40;69.10;;;;;;5075136;28;20419;-64
2022/12/13 09:33:47;;;;;;;0.50;0.50;;;13.30;69.00;;;;;;5075528;28;20276;-63
2022/12/13 09:36:35;;;;;;;0.40;0.40;;;13.20;68.70;;;;;;5075282;28;20561;-64
2022/12/13 09:39:25;;;;;;;0.40;0.40;;;13.20;69.60;;;;;;5075001;28;20969;-64
2022/12/13 09:42:18;;;;;;;0.40;0.40;;;13.20;68.90;;;;;;5067564;28;20284;-64
2022/12/13 09:45:11;;;;;;;0.50;0.50;;;13.10;68.90;;;;;;5056214;28;20225;-64
2022/12/13 09:48:21;;;;;;;0.40;0.40;;;13.10;69.20;;;;;;5054977;28;20826;-65
2022/12/13 09:51:10;;;;;;;0.40;0.40;;;13.10;69.10;;;;;;5054069;28;20427;-65
2022/12/13 09:54:19;;;;;;;0.40;0.40;;;13.00;69.10;;;;;;5055825;28;20507;-64
2022/12/13 09:57:17;;;;;;;0.40;0.40;;;13.00;69.60;;;;;;5055271;28;20475;-64
2022/12/13 10:00:22;;;;;;;0.40;0.40;;;13.00;69.60;;;;;;5053544;28;20431;-64
2022/12/13 10:03:14;;;;;;;0.43;0.43;;;13.00;68.90;;;;;;5053194;28;20579;-64
2022/12/13 10:06:14;;;;;;;0.40;0.40;;;12.90;70.30;;;;;;5054707;28;20511;-65
2022/12/13 10:09:13;;;;;;;0.40;0.40;;;13.10;70.90;;;;;;5054437;28;20948;-64
2022/12/13 10:12:01;;;;;;;0.40;0.40;;;13.10;70.60;;;;;;5054874;28;20511;-64
2022/12/13 10:14:55;;;;;;;0.40;0.40;;;13.30;70.40;;;;;;5054226;28;20432;-65
2022/12/13 10:17:47;;;;;;;0.40;0.40;;;13.40;70.30;;;;;;5052914;28;20834;-64
2022/12/13 10:20:42;;;;;;;0.40;0.40;;;13.50;70.00;;;;;;5054274;28;20578;-65
2022/12/13 10:23:30;;;;;;;0.50;0.50;;;13.50;69.80;;;;;;5054956;28;20602;-66
2022/12/13 10:26:39;;;;;;;0.40;0.40;;;13.70;69.30;;;;;;5053346;28;20424;-66
2022/12/13 10:29:27;;;;;;;0.60;0.60;;;13.80;69.80;;;;;;5053477;28;20865;-64
2022/12/13 10:32:19;;;;;;;0.40;0.40;;;13.80;69.60;;;;;;5055164;28;20704;-65
2022/12/13 10:35:23;;;;;;;1.93;1.73;;;13.80;69.40;;;;;;5054092;28;20426;-64
2022/12/13 10:38:26;;;;;;;0.40;0.40;;;13.80;68.80;;;;;;5054520;28;20456;-64
2022/12/13 10:41:31;;;;;;;0.40;0.40;;;13.80;69.30;;;;;;5053023;28;20198;-65
2022/12/13 10:44:23;;;;;;;0.40;0.40;;;13.70;68.70;;;;;;5073823;28;20208;-63
2022/12/13 10:47:18;;;;;;;1.63;1.53;;;13.70;68.60;;;;;;5073743;28;20290;-63
2022/12/13 10:50:20;;;;;;;0.40;0.40;;;13.70;68.80;;;;;;5072750;28;20288;-65
2022/12/13 10:53:19;;;;;;;0.40;0.40;;;13.70;69.30;;;;;;5074507;28;20487;-65
2022/12/13 10:56:10;;;;;;;0.40;0.40;;;13.60;68.50;;;;;;5075044;28;20295;-63
2022/12/13 10:59:10;;;;;;;0.40;0.40;;;13.60;68.50;;;;;;5073759;28;20483;-63
2022/12/13 11:02:29;;;;;;;0.40;0.40;;;13.50;68.00;;;;;;5071671;28;20428;-63
2022/12/13 11:05:25;;;;;;;0.40;0.40;;;13.40;68.40;;;;;;5072963;28;20217;-62
2022/12/13 11:08:16;;;;;;;0.40;0.40;;;13.40;69.00;;;;;;5072791;28;20221;-61
2022/12/13 11:11:06;;;;;;;0.40;0.40;;;13.40;69.60;;;;;;5071513;28;20457;-62
2022/12/13 11:14:00;;;;;;;0.40;0.40;;;13.30;69.20;;;;;;5071961;28;20434;-64
2022/12/13 11:16:51;;;;;;;0.97;0.97;;;13.30;69.00;;;;;;5073344;28;20478;-62
2022/12/13 11:19:46;;;;;;;0.40;0.40;;;13.20;69.50;;;;;;5072578;28;20435;-62
2022/12/13 11:22:37;;;;;;;0.40;0.40;;;13.20;69.40;;;;;;5072981;28;20419;-63
2022/12/13 11:25:28;;;;;;;0.40;0.40;;;13.20;70.10;;;;;;5072479;28;20458;-63
2022/12/13 11:28:31;;;;;;;0.40;0.40;;;13.30;70.20;;;;;;5072875;28;20450;-63
2022/12/13 11:31:27;;;;;;;0.40;0.40;;;13.40;70.10;;;;;;5072541;28;20419;-62
2022/12/13 11:34:24;;;;;;;0.40;0.40;;;13.60;69.90;;;;;;5072572;28;20415;-63
2022/12/13 11:37:19;;;;;;;0.50;0.50;;;13.70;69.70;;;;;;5074405;28;20220;-62
2022/12/13 11:40:14;;;;;;;0.40;0.40;;;13.80;69.50;;;;;;5072568;28;20427;-63
2022/12/13 11:43:11;;;;;;;0.40;0.40;;;13.90;69.40;;;;;;5058839;28;20205;-63
2022/12/13 11:46:04;;;;;;;0.40;0.40;;;14.00;69.20;;;;;;5052557;28;20220;-62
2022/12/13 11:48:58;;;;;;;0.40;0.40;;;14.00;69.10;;;;;;5053627;28;20432;-62
2022/12/13 11:51:51;;;;;;;0.40;0.40;;;14.00;68.90;;;;;;5053464;28;20281;-62
2022/12/13 11:54:48;;;;;;;0.40;0.40;;;14.00;68.70;;;;;;5052616;28;20273;-63
2022/12/13 11:57:44;;;;;;;0.40;0.40;;;14.00;68.70;;;;;;5052955;28;20749;-63
2022/12/13 12:00:35;;;;;;;5.20;3.13;;;14.00;68.80;;;;;;5052001;28;20263;-63
2022/12/13 12:03:37;;;;;;;1.67;1.57;;;14.00;68.80;;;;;;5053201;28;20609;-64
2022/12/13 12:06:29;;;;;;;0.40;0.40;;;14.00;68.30;;;;;;5052751;28;20217;-63
2022/12/13 12:09:20;;;;;;;0.40;0.40;;;14.00;68.10;;;;;;5051707;28;20251;-63
2022/12/13 12:12:16;;;;;;;0.40;0.40;;;13.90;68.40;;;;;;5051883;28;20281;-62
2022/12/13 12:15:14;;;;;;;0.40;0.40;;;13.80;68.50;;;;;;5052091;28;20194;-63
2022/12/13 12:18:03;;;;;;;0.60;0.60;;;13.80;68.40;;;;;;5053207;28;20711;-63
2022/12/13 12:21:03;;;;;;;0.40;0.40;;;13.70;68.60;;;;;;5051656;28;20764;-61
2022/12/13 12:24:04;;;;;;;0.40;0.40;;;13.60;68.50;;;;;;5053495;28;20579;-62
2022/12/13 12:27:06;;;;;;;0.40;0.40;;;13.60;68.70;;;;;;5055182;28;20223;-62
2022/12/13 12:30:10;;;;;;;0.40;0.40;;;13.50;68.40;;;;;;5055637;28;20211;-62
2022/12/13 12:33:08;;;;;;;0.40;0.40;;;13.40;68.50;;;;;;5056882;28;20215;-64
2022/12/13 12:36:05;;;;;;;0.40;0.40;;;13.40;68.60;;;;;;5056685;28;21039;-62
2022/12/13 12:39:18;;;;;;;0.40;0.40;;;13.40;68.60;;;;;;5056207;28;20254;-62
2022/12/13 12:42:30;;;;;;;1.03;1.03;;;13.30;68.50;;;;;;5062527;28;20199;-64
2022/12/13 12:45:57;;;;;;;0.40;0.40;;;13.30;68.70;;;;;;5075304;28;20799;-62
2022/12/13 12:49:17;;;;;;;0.50;0.50;;;13.30;70.00;;;;;;5057272;28;20563;-63
2022/12/13 12:52:15;;;;;;;0.40;0.40;;;13.50;70.60;;;;;;5055666;28;20449;-63
2022/12/13 12:55:10;;;;;;;0.40;0.40;;;13.70;69.60;;;;;;5055901;28;20431;-63
2022/12/13 12:58:08;;;;;;;0.40;0.40;;;13.90;69.30;;;;;;5055837;28;20240;-62
2022/12/13 13:01:13;;;;;;;0.63;0.63;;;14.10;69.00;;;;;;5054138;28;20210;-62
2022/12/13 13:04:06;;;;;;;0.40;0.40;;;14.20;68.90;;;;;;5055189;28;20670;-63
2022/12/13 13:06:59;;;;;;;0.50;0.50;;;14.30;68.70;;;;;;5055668;28;21042;-63
2022/12/13 13:09:49;;;;;;;0.40;0.40;;;14.40;68.60;;;;;;5055819;28;20711;-62
2022/12/13 13:12:42;;;;;;;0.40;0.40;;;14.50;68.60;;;;;;5056081;28;20210;-62
2022/12/13 13:16:06;;;;;;;0.40;0.40;;;14.50;68.40;;;;;;5054969;28;20197;-63
2022/12/13 13:18:55;;;;;;;0.40;0.40;;;14.50;68.30;;;;;;4993515;28;20208;-63
2022/12/13 13:21:46;;;;;;;0.40;0.40;;;14.50;68.10;;;;;;4994301;28;20203;-62
2022/12/13 13:24:34;;;;;;;0.40;0.40;;;14.50;68.10;;;;;;5049611;28;20205;-62
2022/12/13 13:27:29;;;;;;;0.40;0.40;;;14.50;68.10;;;;;;5055594;28;20218;-62
2022/12/13 13:30:19;;;;;;;0.40;0.40;;;14.50;68.20;;;;;;5054656;28;20331;-62
2022/12/13 13:33:43;;;;;;;0.40;0.40;;;14.40;68.00;;;;;;5055796;28;20205;-62
2022/12/13 13:36:47;;;;;;;0.40;0.40;;;14.40;68.10;;;;;;5055019;28;20677;-62
2022/12/13 13:39:55;;;;;;;0.40;0.40;;;14.30;67.20;;;;;;5054371;28;20280;-62
2022/12/13 13:43:02;;;;;;;0.40;0.40;;;14.20;67.60;;;;;;5066688;28;20228;-63
2022/12/13 13:45:59;;;;;;;0.40;0.40;;;14.10;68.00;;;;;;5073639;28;20204;-62
2022/12/13 13:48:57;;;;;;;0.40;0.40;;;14.10;68.20;;;;;;5073091;28;20222;-62
2022/12/13 13:52:14;;;;;;;0.40;0.40;;;14.00;68.10;;;;;;5075534;28;20205;-61
2022/12/13 13:55:37;;;;;;;0.40;0.40;;;13.90;68.10;;;;;;5074685;28;20236;-62
2022/12/13 13:58:48;;;;;;;0.40;0.40;;;13.80;68.30;;;;;;5074466;28;20228;-63
2022/12/13 14:02:10;;;;;;;0.40;0.40;;;13.80;68.30;;;;;;5074057;28;20280;-63
2022/12/13 14:05:21;;;;;;;0.40;0.40;;;13.70;68.10;;;;;;5073714;28;20209;-63
2022/12/13 14:08:28;;;;;;;0.40;0.40;;;13.60;68.10;;;;;;5073591;28;20220;-63
2022/12/13 14:11:52;;;;;;;0.40;0.40;;;13.60;68.20;;;;;;5073761;28;20197;-63
2022/12/13 14:15:11;;;;;;;0.40;0.40;;;13.60;69.00;;;;;;5072835;28;20207;-62
2022/12/13 14:18:36;;;;;;;0.40;0.40;;;13.60;69.50;;;;;;5073727;28;20311;-62
2022/12/13 14:21:33;;;;;;;0.40;0.40;;;13.60;69.50;;;;;;5063844;28;20223;-63
2022/12/13 14:24:32;;;;;;;0.50;0.50;;;13.70;69.50;;;;;;5053809;28;20213;-62
2022/12/13 14:27:39;;;;;;;0.40;0.40;;;13.80;69.40;;;;;;5053849;28;20551;-63
2022/12/13 14:30:27;;;;;;;0.40;0.40;;;13.80;69.20;;;;;;5053058;28;20741;-63
2022/12/13 14:33:20;;;;;;;0.40;0.40;;;13.80;69.30;;;;;;5053731;28;20583;-62
2022/12/13 14:36:15;;;;;;;0.40;0.40;;;13.70;68.90;;;;;;5053427;28;20189;-62
2022/12/13 14:39:06;;;;;;;0.40;0.40;;;13.80;69.40;;;;;;5053342;28;20481;-62
2022/12/13 14:42:23;;;;;;;0.40;0.40;;;13.80;69.20;;;;;;5061704;28;20491;-62
2022/12/13 14:45:21;;;;;;;0.40;0.40;;;13.70;69.10;;;;;;5073259;28;20205;-62
2022/12/13 14:48:14;;;;;;;0.40;0.40;;;13.70;68.80;;;;;;5072503;28;20715;-62
2022/12/13 14:51:03;;;;;;;0.40;0.40;;;13.60;68.70;;;;;;5073349;28;20284;-63
2022/12/13 14:53:53;;;;;;;0.40;0.40;;;13.60;69.00;;;;;;5073681;28;20506;-62
2022/12/13 14:56:56;;;;;;;0.70;0.70;;;13.60;68.60;;;;;;5073572;28;20272;-63
2022/12/13 14:59:48;;;;;;;0.40;0.40;;;13.60;68.70;;;;;;5073309;28;20738;-63
2022/12/13 15:02:49;;;;;;;0.40;0.40;;;13.50;69.00;;;;;;5073382;28;20204;-62
2022/12/13 15:05:43;;;;;;;0.40;0.40;;;13.40;68.70;;;;;;5072999;28;20415;-61
2022/12/13 15:08:37;;;;;;;0.40;0.40;;;13.40;68.90;;;;;;5073093;28;20828;-61